createdAt,value
2017-09-28T00:00:53.382Z,33.40
2017-09-28T00:03:20.666Z,31.53
2017-09-28T00:05:47.963Z,35.77
2017-09-28T00:08:15.232Z,31.67
2017-09-28T00:10:42.497Z,32.37
2017-09-28T00:13:09.799Z,32.23
2017-09-28T00:15:37.063Z,33.13
2017-09-28T00:18:04.379Z,33.73
2017-09-28T00:20:31.646Z,36.70
2017-09-28T00:22:58.926Z,32.90
2017-09-28T00:25:26.220Z,35.27
2017-09-28T00:27:53.484Z,30.53
2017-09-28T00:30:20.788Z,31.10
2017-09-28T00:32:48.095Z,34.20
2017-09-28T00:35:15.373Z,36.30
2017-09-28T00:37:42.643Z,32.77
2017-09-28T00:40:09.955Z,33.10
2017-09-28T00:42:37.236Z,32.90
2017-09-28T00:45:04.550Z,33.07
2017-09-28T00:47:31.822Z,28.37
2017-09-28T00:49:59.091Z,32.27
2017-09-28T00:52:26.391Z,29.73
2017-09-28T00:54:53.686Z,30.23
2017-09-28T00:57:20.986Z,31.10
2017-09-28T00:59:48.257Z,32.30
2017-09-28T01:02:15.553Z,31.00
2017-09-28T01:04:42.827Z,31.97
2017-09-28T01:07:10.126Z,29.47
2017-09-28T01:09:37.405Z,31.43
2017-09-28T01:12:04.691Z,30.90
2017-09-28T01:14:31.996Z,30.93
2017-09-28T01:16:59.259Z,28.00
2017-09-28T01:19:26.573Z,31.30
2017-09-28T01:21:53.842Z,30.60
2017-09-28T01:24:21.118Z,29.67
2017-09-28T01:26:48.479Z,29.23
2017-09-28T01:29:15.750Z,29.80
2017-09-28T01:31:43.052Z,26.50
2017-09-28T01:34:10.324Z,27.30
2017-09-28T01:36:37.611Z,28.90
2017-09-28T01:39:04.888Z,29.40
2017-09-28T01:41:32.196Z,29.17
2017-09-28T01:43:59.460Z,30.10
2017-09-28T01:46:26.734Z,30.70
2017-09-28T01:48:54.044Z,28.30
2017-09-28T01:51:21.311Z,27.67
2017-09-28T01:53:48.587Z,29.10
2017-09-28T01:56:15.886Z,28.97
2017-09-28T01:58:43.160Z,27.33
2017-09-28T02:01:10.443Z,29.17
2017-09-28T02:03:37.708Z,28.07
2017-09-28T02:06:05.020Z,23.63
2017-09-28T02:08:32.428Z,25.47
2017-09-28T02:10:59.698Z,26.63
2017-09-28T02:13:27.016Z,23.90
2017-09-28T02:15:54.281Z,24.73
2017-09-28T02:18:21.546Z,25.03
2017-09-28T02:20:48.852Z,26.10
2017-09-28T02:23:16.119Z,25.00
2017-09-28T02:25:43.396Z,24.47
2017-09-28T02:28:10.690Z,21.70
2017-09-28T02:30:37.994Z,23.00
2017-09-28T02:33:05.263Z,22.63
2017-09-28T02:35:32.544Z,24.63
2017-09-28T02:37:59.842Z,24.20
2017-09-28T02:40:27.103Z,22.90
2017-09-28T02:42:54.399Z,24.17
2017-09-28T02:45:21.680Z,25.90
2017-09-28T02:47:49.122Z,24.53
2017-09-28T02:50:16.394Z,23.23
2017-09-28T02:52:43.671Z,24.90
2017-09-28T02:55:10.971Z,24.13
2017-09-28T02:57:38.239Z,24.57
2017-09-28T03:00:05.539Z,26.13
2017-09-28T03:02:32.817Z,25.63
2017-09-28T03:05:00.106Z,22.70
2017-09-28T03:07:27.403Z,22.20
2017-09-28T03:09:54.679Z,23.00
2017-09-28T03:12:21.983Z,22.93
2017-09-28T03:14:49.251Z,23.13
2017-09-28T03:17:16.549Z,25.03
2017-09-28T03:19:43.822Z,25.17
2017-09-28T03:22:11.122Z,23.20
2017-09-28T03:24:38.410Z,21.10
2017-09-28T03:27:05.684Z,23.70
2017-09-28T03:29:32.990Z,23.60
2017-09-28T03:32:00.267Z,24.57
2017-09-28T03:34:27.577Z,22.20
2017-09-28T03:36:54.851Z,23.80
2017-09-28T03:39:22.119Z,23.37
2017-09-28T03:41:49.430Z,25.10
2017-09-28T03:44:16.691Z,22.60
2017-09-28T03:46:43.963Z,22.97
2017-09-28T03:49:11.260Z,20.87
2017-09-28T03:51:38.537Z,24.27
2017-09-28T03:54:05.839Z,21.73
2017-09-28T03:56:33.159Z,22.13
2017-09-28T03:59:00.467Z,21.37
2017-09-28T04:01:27.766Z,20.07
2017-09-28T04:03:55.036Z,22.40
2017-09-28T04:06:22.339Z,21.47
2017-09-28T04:08:49.651Z,21.70
2017-09-28T04:11:16.942Z,23.53
2017-09-28T04:13:44.210Z,21.40
2017-09-28T04:16:11.512Z,22.90
2017-09-28T04:18:39.710Z,22.57
2017-09-28T04:21:07.015Z,21.03
2017-09-28T04:23:34.283Z,20.00
2017-09-28T04:26:01.552Z,21.60
2017-09-28T04:28:28.851Z,20.43
2017-09-28T04:30:56.119Z,21.97
2017-09-28T04:33:23.418Z,21.03
2017-09-28T04:35:50.733Z,19.77
2017-09-28T04:38:18.004Z,20.90
2017-09-28T04:40:45.277Z,19.90
2017-09-28T04:43:12.587Z,21.73
2017-09-28T04:45:39.858Z,21.43
2017-09-28T04:48:07.129Z,21.50
2017-09-28T04:50:34.427Z,20.10
2017-09-28T04:53:01.703Z,23.07
2017-09-28T04:55:28.979Z,23.33
2017-09-28T04:57:56.283Z,24.40
2017-09-28T05:00:23.554Z,23.30
2017-09-28T05:02:50.859Z,21.13
2017-09-28T05:05:18.159Z,22.73
2017-09-28T05:07:45.435Z,21.27
2017-09-28T05:10:12.764Z,22.10
2017-09-28T05:12:40.039Z,23.43
2017-09-28T05:15:07.339Z,21.83
2017-09-28T05:17:34.638Z,23.10
2017-09-28T05:20:01.936Z,23.47
2017-09-28T05:22:29.206Z,23.43
2017-09-28T05:24:56.751Z,23.33
2017-09-28T05:27:24.031Z,24.73
2017-09-28T05:33:21.558Z,23.27
2017-09-28T05:35:48.831Z,24.27
2017-09-28T05:38:16.116Z,24.07
2017-09-28T05:40:43.414Z,25.10
2017-09-28T05:43:10.687Z,27.43
2017-09-28T05:45:37.976Z,25.17
2017-09-28T05:48:05.251Z,23.20
2017-09-28T05:50:32.558Z,25.37
2017-09-28T05:52:59.852Z,22.43
2017-09-28T05:55:27.125Z,27.00
2017-09-28T05:57:54.444Z,26.17
2017-09-28T06:00:21.715Z,28.17
2017-09-28T06:02:48.999Z,27.60
2017-09-28T06:05:16.300Z,23.83
2017-09-28T06:07:43.600Z,25.80
2017-09-28T06:10:10.871Z,26.70
2017-09-28T06:12:38.171Z,24.17
2017-09-28T06:15:05.443Z,26.80
2017-09-28T06:17:32.745Z,28.73
2017-09-28T06:20:00.023Z,27.70
2017-09-28T06:22:27.299Z,28.30
2017-09-28T06:24:54.606Z,26.30
2017-09-28T06:27:21.874Z,26.30
2017-09-28T06:29:49.146Z,25.37
2017-09-28T06:32:16.462Z,27.67
2017-09-28T06:34:43.739Z,26.90
2017-09-28T06:37:11.035Z,26.90
2017-09-28T06:39:38.325Z,29.00
2017-09-28T06:42:05.628Z,27.10
2017-09-28T06:44:32.927Z,28.20
2017-09-28T06:47:00.199Z,29.30
2017-09-28T06:49:27.508Z,29.10
2017-09-28T06:51:54.780Z,28.80
2017-09-28T06:54:22.050Z,27.37
2017-09-28T06:56:49.350Z,28.00
2017-09-28T06:59:16.620Z,31.13
2017-09-28T07:01:43.922Z,29.63
2017-09-28T07:04:11.335Z,27.47
2017-09-28T07:06:38.624Z,31.20
2017-09-28T07:09:05.895Z,32.60
2017-09-28T07:11:33.162Z,31.13
2017-09-28T07:14:00.468Z,30.00
2017-09-28T07:16:27.733Z,29.37
2017-09-28T07:18:55.027Z,31.13
2017-09-28T07:21:22.300Z,28.00
2017-09-28T07:23:49.599Z,29.73
2017-09-28T07:26:16.885Z,28.90
2017-09-28T07:28:44.180Z,28.63
2017-09-28T07:31:11.451Z,30.83
2017-09-28T07:33:38.743Z,29.20
2017-09-28T07:36:06.016Z,30.60
2017-09-28T07:38:33.310Z,32.13
2017-09-28T07:41:00.579Z,34.07
2017-09-28T07:43:27.871Z,34.30
2017-09-28T07:45:55.143Z,35.73
2017-09-28T07:48:22.447Z,35.00
2017-09-28T07:50:49.743Z,47.83
2017-09-28T07:53:17.049Z,46.20
2017-09-28T07:55:44.314Z,49.43
2017-09-28T07:58:11.613Z,50.30
2017-09-28T08:00:38.915Z,49.07
2017-09-28T08:03:06.182Z,51.87
2017-09-28T08:05:33.496Z,50.23
2017-09-28T08:08:00.762Z,46.50
2017-09-28T08:10:28.038Z,45.43
2017-09-28T08:12:55.343Z,45.07
2017-09-28T08:15:22.610Z,41.63
2017-09-28T08:17:49.910Z,40.10
2017-09-28T08:20:17.183Z,40.03
2017-09-28T08:22:44.481Z,37.53
2017-09-28T08:25:11.763Z,41.70
2017-09-28T08:27:39.054Z,40.77
2017-09-28T08:30:06.331Z,45.13
2017-09-28T08:32:33.631Z,49.33
2017-09-28T08:35:00.943Z,46.40
2017-09-28T08:37:28.219Z,46.73
2017-09-28T08:39:55.495Z,48.40
2017-09-28T08:42:22.791Z,53.50
2017-09-28T08:44:50.062Z,50.97
2017-09-28T08:47:17.379Z,49.90
2017-09-28T08:49:44.650Z,53.30
2017-09-28T08:52:11.926Z,46.60
2017-09-28T08:54:39.243Z,50.07
2017-09-28T08:57:06.515Z,49.27
2017-09-28T08:59:33.791Z,47.70
2017-09-28T09:02:01.095Z,46.93
2017-09-28T09:04:28.398Z,48.23
2017-09-28T09:06:55.683Z,54.10
2017-09-28T09:09:22.970Z,47.87
2017-09-28T09:11:50.272Z,47.07
2017-09-28T09:14:17.543Z,51.50
2017-09-28T09:16:44.845Z,47.40
2017-09-28T09:19:12.118Z,46.90
2017-09-28T09:21:39.414Z,48.00
2017-09-28T09:24:06.706Z,47.30
2017-09-28T09:26:33.979Z,47.63
2017-09-28T09:29:01.279Z,42.80
2017-09-28T09:31:28.552Z,42.53
2017-09-28T09:33:55.859Z,41.80
2017-09-28T09:36:23.136Z,44.40
2017-09-28T09:38:50.400Z,45.50
2017-09-28T09:41:17.699Z,44.87
2017-09-28T09:43:44.976Z,47.20
2017-09-28T09:46:12.274Z,43.40
2017-09-28T09:48:39.547Z,42.37
2017-09-28T09:51:06.846Z,39.60
2017-09-28T09:53:34.143Z,40.70
2017-09-28T09:56:01.411Z,40.23
2017-09-28T09:58:28.709Z,38.80
2017-09-28T10:00:55.982Z,37.33
2017-09-28T10:03:23.271Z,39.80
2017-09-28T10:05:50.551Z,37.00
2017-09-28T10:08:25.307Z,36.30
2017-09-28T10:10:57.318Z,38.43
2017-09-28T10:13:26.571Z,40.73
2017-09-28T10:15:58.483Z,40.37
2017-09-28T10:18:25.941Z,40.70
2017-09-28T10:20:53.240Z,40.93
2017-09-28T10:23:20.510Z,37.70
2017-09-28T10:25:47.796Z,35.97
2017-09-28T10:28:15.098Z,34.87
2017-09-28T10:30:42.375Z,34.27
2017-09-28T10:33:09.689Z,35.97
2017-09-28T10:35:36.958Z,33.37
2017-09-28T10:38:04.227Z,31.30
2017-09-28T10:40:31.530Z,32.30
2017-09-28T10:42:58.806Z,33.33
2017-09-28T10:45:26.084Z,30.80
2017-09-28T10:47:53.378Z,34.50
2017-09-28T10:50:20.658Z,34.40
2017-09-28T10:52:47.954Z,32.23
2017-09-28T10:55:15.272Z,31.27
2017-09-28T10:57:42.545Z,32.00
2017-09-28T11:00:09.815Z,34.10
2017-09-28T11:02:37.118Z,33.40
2017-09-28T11:05:04.392Z,32.17
2017-09-28T11:07:31.695Z,30.17
2017-09-28T11:09:59.003Z,28.57
2017-09-28T11:12:26.305Z,30.90
2017-09-28T11:14:53.620Z,29.90
2017-09-28T11:17:20.916Z,28.90
2017-09-28T11:19:48.164Z,27.80
2017-09-28T11:22:15.469Z,25.60
2017-09-28T11:24:42.758Z,23.60
2017-09-28T11:27:10.056Z,23.83
2017-09-28T11:29:37.322Z,21.07
2017-09-28T11:32:04.748Z,21.47
2017-09-28T11:34:32.660Z,23.90
2017-09-28T11:37:00.143Z,25.30
2017-09-28T11:39:27.434Z,25.93
2017-09-28T11:41:55.110Z,26.73
2017-09-28T11:44:23.334Z,27.87
2017-09-28T11:46:50.828Z,24.97
2017-09-28T11:49:18.107Z,25.57
2017-09-28T11:51:45.407Z,25.90
2017-09-28T11:54:12.677Z,26.53
2017-09-28T11:56:40.069Z,26.43
2017-09-28T11:59:07.396Z,24.33
2017-09-28T12:01:34.687Z,26.20
2017-09-28T12:04:01.963Z,28.30
2017-09-28T12:06:29.275Z,29.20
2017-09-28T12:08:56.543Z,30.27
2017-09-28T12:11:23.825Z,29.10
2017-09-28T12:13:51.146Z,29.13
2017-09-28T12:16:18.411Z,28.53
2017-09-28T12:18:45.692Z,27.73
2017-09-28T12:21:13.040Z,30.90
2017-09-28T12:23:40.274Z,29.10
2017-09-28T12:26:07.571Z,27.87
2017-09-28T12:28:34.868Z,26.27
2017-09-28T12:31:02.174Z,25.50
2017-09-28T12:33:29.476Z,24.30
2017-09-28T12:35:56.791Z,24.27
2017-09-28T12:38:24.048Z,25.23
2017-09-28T12:40:51.339Z,26.43
2017-09-28T12:43:18.615Z,26.60
2017-09-28T12:45:45.916Z,26.50
2017-09-28T12:48:13.190Z,25.80
2017-09-28T12:50:40.461Z,23.17
2017-09-28T12:53:07.765Z,25.30
2017-09-28T12:55:35.036Z,23.27
2017-09-28T12:58:02.367Z,23.80
2017-09-28T13:00:29.631Z,23.70
2017-09-28T13:02:56.903Z,24.47
2017-09-28T13:05:24.214Z,26.20
2017-09-28T13:07:51.474Z,25.00
2017-09-28T13:10:18.772Z,24.50
2017-09-28T13:12:46.086Z,22.73
2017-09-28T13:15:13.388Z,24.23
2017-09-28T13:17:40.659Z,22.13
2017-09-28T13:20:07.975Z,25.97
2017-09-28T13:22:35.312Z,21.83
2017-09-28T13:25:02.579Z,21.17
2017-09-28T13:27:29.874Z,22.83
2017-09-28T13:29:57.175Z,20.43
2017-09-28T13:32:24.455Z,20.40
2017-09-28T13:34:51.771Z,20.20
2017-09-28T13:37:19.050Z,21.57
2017-09-28T13:39:46.337Z,20.10
2017-09-28T13:42:13.649Z,19.10
2017-09-28T13:44:40.921Z,20.30
2017-09-28T13:47:08.245Z,20.90
2017-09-28T13:49:35.522Z,20.07
2017-09-28T13:52:02.860Z,19.90
2017-09-28T13:54:30.181Z,19.50
2017-09-28T13:56:57.467Z,20.23
2017-09-28T13:59:24.750Z,22.23
2017-09-28T14:01:52.095Z,22.33
2017-09-28T14:04:19.397Z,21.80
2017-09-28T14:06:46.795Z,21.77
2017-09-28T14:09:13.962Z,21.30
2017-09-28T14:11:41.263Z,19.77
2017-09-28T14:14:08.572Z,20.10
2017-09-28T14:16:35.855Z,20.07
2017-09-28T14:19:03.136Z,19.10
2017-09-28T14:21:30.439Z,21.10
2017-09-28T14:23:57.748Z,20.50
2017-09-28T14:26:25.035Z,21.80
2017-09-28T14:28:52.303Z,19.53
2017-09-28T14:31:19.602Z,19.10
2017-09-28T14:33:46.875Z,21.07
2017-09-28T14:36:14.220Z,22.13
2017-09-28T14:38:41.505Z,19.20
2017-09-28T14:41:08.787Z,20.10
2017-09-28T14:43:36.143Z,21.43
2017-09-28T14:46:03.419Z,23.23
2017-09-28T14:48:30.712Z,22.70
2017-09-28T14:50:58.015Z,23.57
2017-09-28T14:53:25.312Z,22.63
2017-09-28T14:55:52.632Z,22.67
2017-09-28T14:58:19.918Z,19.60
2017-09-28T15:00:47.280Z,22.60
2017-09-28T15:03:14.503Z,22.27
2017-09-28T15:05:41.812Z,24.33
2017-09-28T15:08:09.100Z,24.00
2017-09-28T15:10:36.409Z,21.53
2017-09-28T15:13:03.730Z,22.63
2017-09-28T15:15:31.007Z,23.23
2017-09-28T15:17:58.284Z,22.80
2017-09-28T15:20:25.601Z,25.10
2017-09-28T15:22:52.870Z,23.23
2017-09-28T15:25:20.150Z,22.37
2017-09-28T15:27:47.527Z,22.30
2017-09-28T15:30:14.768Z,23.03
2017-09-28T15:32:42.039Z,22.17
2017-09-28T15:35:09.339Z,20.70
2017-09-28T15:37:36.650Z,21.27
2017-09-28T15:40:03.931Z,23.10
2017-09-28T15:42:31.227Z,21.63
2017-09-28T15:44:58.523Z,21.30
2017-09-28T15:47:25.840Z,23.80
2017-09-28T15:49:53.127Z,23.90
2017-09-28T15:52:20.398Z,22.77
2017-09-28T15:54:47.826Z,23.83
2017-09-28T15:57:14.979Z,26.00
2017-09-28T15:59:42.287Z,25.63
2017-09-28T16:02:09.566Z,24.87
2017-09-28T16:04:36.873Z,26.13
2017-09-28T16:07:04.170Z,25.50
2017-09-28T16:09:31.453Z,25.73
2017-09-28T16:11:58.767Z,25.17
2017-09-28T16:14:26.049Z,25.40
2017-09-28T16:16:53.356Z,25.93
2017-09-28T16:19:20.650Z,27.33
2017-09-28T16:21:48.068Z,24.53
2017-09-28T16:24:15.235Z,24.27
2017-09-28T16:26:42.537Z,22.80
2017-09-28T16:29:09.844Z,21.77
2017-09-28T16:31:37.136Z,22.50
2017-09-28T16:34:04.478Z,22.33
2017-09-28T16:36:31.752Z,22.30
2017-09-28T16:38:59.052Z,20.30
2017-09-28T16:41:26.363Z,23.20
2017-09-28T16:43:53.633Z,23.70
2017-09-28T16:46:20.983Z,24.00
2017-09-28T16:48:48.313Z,21.93
2017-09-28T16:51:15.562Z,21.37
2017-09-28T16:53:42.895Z,21.70
2017-09-28T16:56:10.168Z,20.87
2017-09-28T16:58:37.449Z,20.80
2017-09-28T17:01:04.745Z,20.93
2017-09-28T17:03:32.015Z,19.97
2017-09-28T17:05:59.315Z,22.70
2017-09-28T17:08:26.600Z,23.57
2017-09-28T17:10:53.919Z,21.50
2017-09-28T17:13:21.194Z,22.23
2017-09-28T17:15:48.561Z,20.10
2017-09-28T17:18:15.792Z,21.40
2017-09-28T17:20:43.063Z,22.07
2017-09-28T17:23:10.342Z,23.10
2017-09-28T17:25:37.656Z,19.77
2017-09-28T17:28:04.918Z,18.77
2017-09-28T17:30:32.965Z,19.40
2017-09-28T17:33:00.445Z,20.70
2017-09-28T17:35:27.715Z,21.03
2017-09-28T17:37:55.027Z,20.23
2017-09-28T17:40:22.308Z,20.20
2017-09-28T17:42:49.604Z,20.43
2017-09-28T17:45:16.920Z,21.03
2017-09-28T17:47:44.199Z,21.30
2017-09-28T17:50:11.517Z,18.33
2017-09-28T17:52:38.791Z,17.70
2017-09-28T17:55:06.079Z,18.90
2017-09-28T17:57:33.379Z,18.67
2017-09-28T18:00:00.697Z,18.90
2017-09-28T18:02:27.988Z,15.77
2017-09-28T18:04:55.274Z,18.27
2017-09-28T18:07:22.579Z,18.50
2017-09-28T18:09:49.867Z,19.23
2017-09-28T18:12:17.187Z,19.37
2017-09-28T18:14:44.507Z,18.80
2017-09-28T18:17:11.783Z,20.73
2017-09-28T18:19:39.061Z,21.50
2017-09-28T18:22:06.357Z,18.80
2017-09-28T18:24:33.826Z,20.33
2017-09-28T18:27:01.125Z,19.67
2017-09-28T18:29:28.419Z,20.80
2017-09-28T18:31:55.691Z,19.03
2017-09-28T18:34:22.998Z,19.43
2017-09-28T18:36:50.274Z,18.03
2017-09-28T18:39:17.547Z,18.30
2017-09-28T18:41:44.851Z,18.53
2017-09-28T18:44:12.119Z,17.30
2017-09-28T18:46:39.426Z,18.47
2017-09-28T18:49:06.694Z,19.63
2017-09-28T18:51:33.980Z,20.47
2017-09-28T18:54:01.307Z,20.07
2017-09-28T18:56:28.588Z,17.80
2017-09-28T18:58:55.859Z,16.67
2017-09-28T19:01:23.159Z,19.10
2017-09-28T19:03:50.436Z,17.33
2017-09-28T19:06:17.737Z,19.07
2017-09-28T19:08:45.020Z,17.57
2017-09-28T19:11:12.336Z,16.33
2017-09-28T19:13:39.706Z,16.97
2017-09-28T19:16:07.070Z,16.17
2017-09-28T19:18:34.460Z,17.10
2017-09-28T19:21:01.754Z,17.53
2017-09-28T19:23:29.067Z,16.73
2017-09-28T19:25:56.343Z,17.40
2017-09-28T19:28:23.635Z,16.40
2017-09-28T19:30:50.938Z,15.83
2017-09-28T19:33:18.252Z,15.70
2017-09-28T19:35:45.562Z,15.80
2017-09-28T19:38:12.832Z,17.40
2017-09-28T19:40:40.129Z,15.90
2017-09-28T19:43:07.427Z,15.50
2017-09-28T19:45:34.727Z,17.07
2017-09-28T19:48:01.999Z,16.63
2017-09-28T19:50:29.306Z,15.77
2017-09-28T19:52:56.578Z,15.63
2017-09-28T19:55:23.852Z,15.37
2017-09-28T19:57:51.170Z,14.97
2017-09-28T20:00:18.440Z,16.10
2017-09-28T20:02:45.738Z,15.20
2017-09-28T20:05:17.607Z,15.90
2017-09-28T20:07:44.908Z,14.60
2017-09-28T20:10:12.180Z,15.60
2017-09-28T20:12:39.477Z,16.67
2017-09-28T20:15:06.823Z,15.30
2017-09-28T20:17:34.096Z,16.27
2017-09-28T20:20:01.364Z,14.17
2017-09-28T20:22:28.664Z,14.87
2017-09-28T20:24:55.932Z,15.13
2017-09-28T20:27:23.240Z,14.00
2017-09-28T20:29:50.512Z,13.90
2017-09-28T20:32:17.811Z,14.80
2017-09-28T20:34:45.119Z,15.87
2017-09-28T20:37:12.395Z,14.50
2017-09-28T20:39:39.666Z,15.87
2017-09-28T20:42:06.982Z,14.30
2017-09-28T20:44:34.251Z,14.53
2017-09-28T20:47:01.536Z,14.73
2017-09-28T20:49:28.867Z,16.33
2017-09-28T20:51:56.144Z,16.47
2017-09-28T20:54:23.424Z,16.00
2017-09-28T20:56:50.741Z,16.43
2017-09-28T20:59:18.011Z,15.37
2017-09-28T21:01:45.288Z,14.87
2017-09-28T21:04:12.609Z,17.30
2017-09-28T21:06:39.879Z,15.60
2017-09-28T21:09:07.172Z,15.27
2017-09-28T21:11:34.463Z,16.93
2017-09-28T21:14:01.748Z,15.53
2017-09-28T21:16:29.039Z,15.87
2017-09-28T21:18:56.315Z,15.93
2017-09-28T21:21:23.618Z,20.50
2017-09-28T21:23:50.924Z,20.20
2017-09-28T21:26:18.201Z,20.13
2017-09-28T21:28:45.499Z,19.20
2017-09-28T21:31:12.814Z,18.90
2017-09-28T21:33:40.108Z,19.33
2017-09-28T21:36:07.379Z,16.57
2017-09-28T21:38:34.675Z,18.23
2017-09-28T21:41:01.972Z,17.67
2017-09-28T21:43:29.247Z,17.83
2017-09-28T21:45:56.571Z,17.93
2017-09-28T21:48:23.862Z,19.20
2017-09-28T21:50:51.132Z,18.03
2017-09-28T21:53:18.430Z,18.70
2017-09-28T21:55:45.743Z,16.43
2017-09-28T21:58:13.014Z,16.87
2017-09-28T22:00:40.309Z,16.40
2017-09-28T22:03:07.608Z,17.80
2017-09-28T22:05:34.899Z,17.30
2017-09-28T22:08:02.223Z,18.43
2017-09-28T22:10:29.496Z,17.00
2017-09-28T22:12:56.763Z,17.70
2017-09-28T22:15:24.067Z,17.67
2017-09-28T22:17:51.343Z,17.47
2017-09-28T22:20:18.615Z,16.33
2017-09-28T22:22:45.922Z,17.70
2017-09-28T22:25:13.214Z,16.67
2017-09-28T22:27:40.487Z,16.37
2017-09-28T22:30:07.783Z,17.10
2017-09-28T22:32:35.054Z,17.83
2017-09-28T22:35:02.352Z,16.73
2017-09-28T22:37:29.618Z,17.70
2017-09-28T22:39:56.915Z,18.80
2017-09-28T22:42:24.223Z,20.87
2017-09-28T22:44:51.491Z,17.70
2017-09-28T22:47:18.800Z,19.73
2017-09-28T22:49:46.071Z,20.60
2017-09-28T22:52:13.370Z,18.40
2017-09-28T22:54:40.635Z,19.27
2017-09-28T22:57:07.944Z,18.93
2017-09-28T22:59:35.216Z,19.43
2017-09-28T23:02:02.482Z,18.80
2017-09-28T23:04:29.783Z,19.70
2017-09-28T23:06:57.063Z,17.83
2017-09-28T23:09:24.367Z,18.27
2017-09-28T23:11:51.639Z,15.90
2017-09-28T23:14:18.934Z,17.07
2017-09-28T23:16:46.209Z,16.50
2017-09-28T23:19:13.523Z,16.10
2017-09-28T23:21:40.795Z,16.90
2017-09-28T23:24:08.075Z,17.40
2017-09-28T23:26:35.381Z,16.60
2017-09-28T23:29:02.655Z,16.80
2017-09-28T23:31:29.975Z,16.83
2017-09-28T23:33:57.252Z,17.70
2017-09-28T23:36:24.515Z,17.47
2017-09-28T23:38:51.819Z,17.40
2017-09-28T23:41:19.099Z,17.00
2017-09-28T23:43:46.383Z,15.73
2017-09-28T23:46:13.680Z,16.07
2017-09-28T23:48:40.949Z,17.10
2017-09-28T23:51:08.251Z,17.10
2017-09-28T23:53:35.524Z,16.60
2017-09-28T23:56:02.833Z,17.00
2017-09-28T23:58:30.099Z,17.17
